Pine, Idaho
Current Conditions -  °F | °C
As of 3:38 AM on Saturday 22 Nov 2014 (Local Time) from KMUO Reporting Station
Overcast Overcast  
Wind Chill: 30°   Ceiling: 7500
Heat Index: 37°   Visibility: 10mi
Dew Point: 37°   Wind: 12mph
Humidity: 100%   Direction: 90°E
Pressure: 29.75"   Gusts: NA
Location:  43.2609°N, 115.781°W
Report Text: KMUO 221038Z AUTO 09010KT 10SM OVC075 03/03 A2975 RMK AO2
Loading
Personal Weather Stations






























Interactive Weather Map New forecast layout! Learn more

10-Day Weather Forecast

Advertisements
Track Severe Weather on mobile